createdAt,value
2022-12-15T08:32:51.638Z,99720.47
2022-12-15T08:35:59.076Z,99718.91
2022-12-15T08:39:02.490Z,99719.84
2022-12-15T08:42:05.296Z,99731.03
2022-12-15T08:45:10.844Z,99749.16
2022-12-15T08:48:13.375Z,99745.97
2022-12-15T08:51:16.451Z,99751.16
2022-12-15T08:54:20.180Z,99756.41
2022-12-15T08:57:22.705Z,99768.41
2022-12-15T09:00:26.570Z,99765.03
2022-12-15T09:03:30.663Z,99758.19
2022-12-15T09:06:35.525Z,99765.97
2022-12-15T09:09:38.153Z,99766.06
2022-12-15T09:12:40.632Z,99770.38
2022-12-15T09:16:08.810Z,99765.34
2022-12-15T09:19:08.262Z,99765.53
2022-12-15T09:22:10.819Z,99765.69
2022-12-15T09:25:13.340Z,99769.25
2022-12-15T09:28:15.861Z,99772.88
2022-12-15T09:31:22.235Z,99772.19
2022-12-15T09:34:24.970Z,99764.56
2022-12-15T09:37:27.473Z,99776.69
2022-12-15T09:40:30.117Z,99769.09
2022-12-15T09:43:35.274Z,99780.28
2022-12-15T09:46:53.927Z,99785.44
2022-12-15T09:49:58.092Z,99780.38
2022-12-15T09:53:01.767Z,99781.22
2022-12-15T09:56:08.146Z,99791.50
2022-12-15T09:59:32.963Z,99789.81
2022-12-15T10:03:01.085Z,99800.09
2022-12-15T10:06:19.250Z,99794.09
2022-12-15T10:09:28.551Z,99788.03
2022-12-15T10:12:42.032Z,99787.16
2022-12-15T10:15:57.132Z,99781.97
2022-12-15T10:19:09.765Z,99783.63
2022-12-15T10:22:15.250Z,99786.97
2022-12-15T10:25:27.565Z,99794.72
2022-12-15T10:28:52.904Z,99790.34
2022-12-15T10:32:01.313Z,99800.56
2022-12-15T10:35:13.852Z,99786.94
2022-12-15T10:38:25.665Z,99783.50
2022-12-15T10:41:32.567Z,99779.22
2022-12-15T10:44:39.651Z,99785.28
2022-12-15T10:47:42.321Z,99787.84
2022-12-15T10:50:50.091Z,99787.06
2022-12-15T10:53:55.367Z,99788.78
2022-12-15T10:56:59.722Z,99792.19
2022-12-15T11:00:28.303Z,99786.13
2022-12-15T11:03:31.656Z,99798.00
2022-12-15T11:06:36.938Z,99796.19
2022-12-15T11:09:40.944Z,99788.44
2022-12-15T11:12:58.306Z,99795.25
2022-12-15T11:16:16.125Z,99799.41
2022-12-15T11:19:31.230Z,99802.06
2022-12-15T11:22:44.425Z,99804.69
2022-12-15T11:25:53.636Z,99807.84
2022-12-15T11:29:01.317Z,99801.06
2022-12-15T11:32:07.345Z,99814.00
2022-12-15T11:35:14.261Z,99812.34
2022-12-15T11:38:27.708Z,99816.63
2022-12-15T11:41:42.215Z,99820.16
2022-12-15T11:44:57.136Z,99815.88
2022-12-15T11:48:11.581Z,99806.34
2022-12-15T11:51:18.583Z,99809.78
2022-12-15T11:54:28.798Z,99810.50
2022-12-15T11:57:57.839Z,99814.72
2022-12-15T12:01:10.861Z,99818.09
2022-12-15T12:04:21.655Z,99812.88
2022-12-15T12:07:41.977Z,99811.88
2022-12-15T12:10:58.064Z,99810.09
2022-12-15T12:14:14.496Z,99814.41
2022-12-15T12:17:25.255Z,99825.81
2022-12-15T12:20:36.710Z,99825.91
2022-12-15T12:23:46.854Z,99821.66
2022-12-15T12:26:58.329Z,99822.47
2022-12-15T12:30:05.373Z,99819.03
2022-12-15T12:33:14.085Z,99826.75
2022-12-15T12:36:17.432Z,99831.09
2022-12-15T12:39:23.450Z,99822.47
2022-12-15T12:42:35.714Z,99838.81
2022-12-15T12:45:51.626Z,99842.22
2022-12-15T12:48:58.239Z,99841.34
2022-12-15T12:52:04.981Z,99844.81
2022-12-15T12:55:26.154Z,99837.88
2022-12-15T12:58:35.432Z,99837.84
2022-12-15T13:01:39.028Z,99831.78
2022-12-15T13:04:44.416Z,99833.56
2022-12-15T13:07:55.724Z,99836.09
2022-12-15T13:11:36.857Z,99828.31
2022-12-15T13:14:51.934Z,99842.06
2022-12-15T13:17:58.823Z,99842.09
2022-12-15T13:21:36.167Z,99842.09
2022-12-15T13:24:44.871Z,99837.75
2022-12-15T13:27:52.679Z,99835.09
2022-12-15T13:31:29.109Z,99841.16
2022-12-15T13:34:39.639Z,99843.72
2022-12-15T13:37:50.452Z,99845.44
2022-12-15T13:40:54.680Z,99838.59
2022-12-15T13:43:59.610Z,99842.00
2022-12-15T13:47:10.398Z,99843.69
2022-12-15T13:50:19.002Z,99842.00
2022-12-15T13:53:25.301Z,99852.38
2022-12-15T13:56:50.736Z,99843.75
2022-12-15T13:59:58.467Z,99842.97
2022-12-15T14:03:06.817Z,99857.69
2022-12-15T14:06:16.180Z,99852.59
2022-12-15T14:09:24.841Z,99850.88
2022-12-15T14:12:27.581Z,99848.28
2022-12-15T14:15:32.566Z,99850.00
2022-12-15T14:18:39.009Z,99843.19
2022-12-15T14:21:49.900Z,99857.97
2022-12-15T14:24:59.160Z,99855.50
2022-12-15T14:28:01.683Z,99858.16
2022-12-15T14:31:07.869Z,99855.63
2022-12-15T14:34:24.590Z,99863.41
2022-12-15T14:37:29.324Z,99870.34
2022-12-15T14:40:32.346Z,99868.66
2022-12-15T14:43:39.645Z,99876.41
2022-12-15T14:46:47.468Z,99872.13
2022-12-15T14:53:17.015Z,99861.84
2022-12-15T14:56:30.545Z,99866.16
2022-12-15T14:59:35.860Z,99862.75
2022-12-15T15:02:39.979Z,99862.72
2022-12-15T15:03:11.248Z,99866.13
2022-12-15T15:05:44.048Z,99868.72
2022-12-15T15:08:50.240Z,99873.88
2022-12-15T15:11:56.889Z,99866.16
2022-12-15T15:15:03.807Z,99867.00
2022-12-15T15:18:06.455Z,99871.31
2022-12-15T15:21:18.833Z,99869.56
2022-12-15T15:24:26.115Z,99868.66
2022-12-15T15:27:36.238Z,99873.78
2022-12-15T15:30:42.956Z,99879.72
2022-12-15T15:33:45.579Z,99881.28
2022-12-15T15:36:48.155Z,99878.66
2022-12-15T15:39:54.113Z,99883.78
2022-12-15T15:42:56.845Z,99878.63
2022-12-15T15:46:03.270Z,99870.09
2022-12-15T15:49:09.093Z,99869.22
2022-12-15T15:52:14.452Z,99867.41
2022-12-15T15:55:26.210Z,99873.34
2022-12-15T15:58:29.089Z,99874.19
2022-12-15T16:01:32.073Z,99869.06
2022-12-15T16:04:36.325Z,99875.91
2022-12-15T16:07:39.150Z,99871.50
2022-12-15T16:10:45.684Z,99867.19
2022-12-15T16:13:49.229Z,99862.94
2022-12-15T16:16:53.875Z,99857.78
2022-12-15T16:19:56.378Z,99864.56
2022-12-15T16:23:01.956Z,99864.47
2022-12-15T16:26:06.353Z,99871.31
2022-12-15T16:29:15.341Z,99861.72
2022-12-15T16:32:17.873Z,99863.88
2022-12-15T16:35:20.761Z,99859.50
2022-12-15T16:38:26.426Z,99858.81
